Time;durP1;ratioP1;P1;durP2;ratioP2;P2;SDS_P1;SDS_P2;PMS_P1;PMS_P2;Temp;Humidity;BMP_temperature;BMP_pressure;BME280_temperature;BME280_humidity;BME280_pressure;Samples;Min_cycle;Max_cycle;Signal;HPM_P1;HPM_P2
2021/03/04 00:01:51;;;;;;;16.17;8.35;;;7.00;99.90;;;;;;1873177;74;21150;-74
2021/03/04 00:04:17;;;;;;;20.02;8.43;;;7.00;99.90;;;;;;1874450;74;21121;-74
2021/03/04 00:06:43;;;;;;;15.20;8.73;;;7.00;99.90;;;;;;1879862;74;21156;-74
2021/03/04 00:09:10;;;;;;;19.02;9.18;;;6.90;99.90;;;;;;1875976;74;21047;-75
2021/03/04 00:11:36;;;;;;;20.55;8.43;;;6.80;99.90;;;;;;1876092;74;21151;-74
2021/03/04 00:14:02;;;;;;;16.87;8.48;;;6.80;99.90;;;;;;1873172;75;21156;-75
2021/03/04 00:16:28;;;;;;;19.12;9.20;;;6.80;99.90;;;;;;1876194;74;21196;-74
2021/03/04 00:18:54;;;;;;;19.48;8.30;;;6.80;99.90;;;;;;1872345;74;21211;-75
2021/03/04 00:21:20;;;;;;;19.07;9.38;;;6.90;99.90;;;;;;1872138;75;21068;-74
2021/03/04 00:23:46;;;;;;;20.00;8.58;;;6.90;99.90;;;;;;1873279;74;21081;-75
2021/03/04 00:26:12;;;;;;;25.52;8.98;;;6.80;99.90;;;;;;1873246;74;21140;-74
2021/03/04 00:28:39;;;;;;;18.27;8.80;;;6.80;99.90;;;;;;1870849;74;21486;-75
2021/03/04 00:31:05;;;;;;;18.60;9.03;;;6.80;99.90;;;;;;1867269;74;21427;-74
2021/03/04 00:33:32;;;;;;;19.73;9.33;;;6.80;99.90;;;;;;1867054;74;21234;-74
2021/03/04 00:35:58;;;;;;;21.70;9.48;;;6.70;99.90;;;;;;1869534;74;21078;-75
2021/03/04 00:38:24;;;;;;;24.75;9.83;;;6.70;99.90;;;;;;1869773;75;21160;-74
2021/03/04 00:40:50;;;;;;;25.60;9.58;;;6.80;99.90;;;;;;1873952;74;21073;-74
2021/03/04 00:43:17;;;;;;;16.32;8.28;;;6.80;99.90;;;;;;1880862;74;21043;-75
2021/03/04 00:45:43;;;;;;;27.67;9.13;;;6.80;99.90;;;;;;1874194;75;21173;-75
2021/03/04 00:48:09;;;;;;;23.27;9.05;;;6.70;99.90;;;;;;1871104;76;21486;-75
2021/03/04 00:50:35;;;;;;;14.87;8.85;;;6.80;99.90;;;;;;1868928;74;21489;-75
2021/03/04 00:53:02;;;;;;;20.72;7.37;;;6.60;99.90;;;;;;1879462;75;21576;-75
2021/03/04 00:55:28;;;;;;;18.52;8.28;;;6.60;99.90;;;;;;1872198;74;21081;-76
2021/03/04 00:57:54;;;;;;;20.75;8.73;;;6.70;99.90;;;;;;1873659;75;21078;-75
2021/03/04 01:00:20;;;;;;;23.90;8.40;;;6.70;99.90;;;;;;1869336;75;21078;-75
2021/03/04 01:02:47;;;;;;;17.95;9.10;;;6.80;99.90;;;;;;1876157;74;21496;-75
2021/03/04 01:05:13;;;;;;;22.87;9.70;;;6.80;99.90;;;;;;1882054;74;21505;-75
2021/03/04 01:07:39;;;;;;;22.75;8.78;;;6.70;99.90;;;;;;1862931;74;21082;-76
2021/03/04 01:10:05;;;;;;;22.73;10.03;;;6.60;99.90;;;;;;1870957;76;21125;-76
2021/03/04 01:12:31;;;;;;;29.52;9.48;;;6.70;99.90;;;;;;1871372;74;21086;-76
2021/03/04 01:14:57;;;;;;;21.35;9.30;;;6.60;99.90;;;;;;1863497;75;21086;-76
2021/03/04 01:17:23;;;;;;;17.12;9.38;;;6.60;99.90;;;;;;1871098;74;21163;-76
2021/03/04 01:19:49;;;;;;;24.15;9.33;;;6.60;99.90;;;;;;1870255;74;21082;-75
2021/03/04 01:22:16;;;;;;;21.80;9.65;;;6.70;99.90;;;;;;1872479;74;21050;-75
2021/03/04 01:24:42;;;;;;;21.77;10.10;;;6.60;99.90;;;;;;1857009;76;21082;-76
2021/03/04 01:27:08;;;;;;;17.37;9.05;;;6.60;99.90;;;;;;1879062;74;21117;-76
2021/03/04 01:29:34;;;;;;;15.15;8.40;;;6.60;99.90;;;;;;1871464;74;21069;-75
2021/03/04 01:32:00;;;;;;;16.40;8.48;;;6.60;99.90;;;;;;1873877;75;21112;-76
2021/03/04 01:34:26;;;;;;;27.35;10.15;;;6.50;99.90;;;;;;1868394;74;21143;-76
2021/03/04 01:36:52;;;;;;;18.42;8.90;;;6.30;99.90;;;;;;1876806;75;21078;-76
2021/03/04 01:39:18;;;;;;;22.32;8.45;;;6.50;99.90;;;;;;1866931;76;21136;-76
2021/03/04 01:41:45;;;;;;;18.73;7.60;;;6.40;99.90;;;;;;1871943;75;21082;-76
2021/03/04 01:44:11;;;;;;;16.67;7.28;;;6.50;99.90;;;;;;1867861;74;21213;-76
2021/03/04 01:46:37;;;;;;;17.67;7.22;;;6.40;99.90;;;;;;1879068;75;21612;-75
2021/03/04 01:49:03;;;;;;;14.68;7.50;;;6.40;99.90;;;;;;1864907;74;21486;-76
2021/03/04 01:51:29;;;;;;;23.60;8.90;;;6.40;99.90;;;;;;1868316;74;21517;-75
2021/03/04 01:53:55;;;;;;;15.05;7.80;;;6.50;99.90;;;;;;1873265;74;21476;-75
2021/03/04 01:56:21;;;;;;;19.25;7.37;;;6.60;99.90;;;;;;1878239;74;21078;-75
2021/03/04 01:58:47;;;;;;;14.98;6.95;;;6.60;99.90;;;;;;1874864;74;21226;-75
2021/03/04 02:03:58;;;;;;;15.15;7.62;;;6.50;99.90;;;;;;1878433;75;21144;-75
2021/03/04 02:06:24;;;;;;;20.70;6.47;;;6.40;99.90;;;;;;1868758;75;21139;-75
2021/03/04 02:08:50;;;;;;;16.27;7.17;;;6.50;99.90;;;;;;1858984;75;21082;-76
2021/03/04 02:11:16;;;;;;;14.65;7.10;;;6.50;99.90;;;;;;1864034;75;21046;-76
2021/03/04 02:13:44;;;;;;;12.78;6.80;;;6.40;99.90;;;;;;1869891;74;21082;-76
2021/03/04 02:16:10;;;;;;;20.20;7.90;;;6.40;99.90;;;;;;1875579;74;21139;-76
2021/03/04 02:18:36;;;;;;;15.95;8.33;;;6.40;99.90;;;;;;1874316;75;21069;-75
2021/03/04 02:21:02;;;;;;;12.80;6.90;;;6.50;99.90;;;;;;1876347;74;21046;-75
2021/03/04 02:23:28;;;;;;;20.72;7.30;;;6.40;99.90;;;;;;1869824;74;21140;-75
2021/03/04 02:25:54;;;;;;;15.15;8.23;;;6.40;99.90;;;;;;1876425;74;21069;-75
2021/03/04 02:28:21;;;;;;;17.35;7.90;;;6.40;99.90;;;;;;1878890;75;21081;-76
2021/03/04 02:30:47;;;;;;;15.70;7.65;;;6.30;99.90;;;;;;1872839;74;21059;-75
2021/03/04 02:33:13;;;;;;;15.23;8.03;;;6.40;99.90;;;;;;1873505;75;21086;-75
2021/03/04 02:35:39;;;;;;;15.68;9.05;;;6.40;99.90;;;;;;1869445;74;21078;-76
2021/03/04 02:38:05;;;;;;;16.23;8.03;;;6.50;99.90;;;;;;1871326;75;21140;-75
2021/03/04 02:40:31;;;;;;;29.12;9.13;;;6.40;99.90;;;;;;1876211;74;21072;-76
2021/03/04 02:42:57;;;;;;;16.73;8.33;;;6.20;99.90;;;;;;1857721;76;21076;-75
2021/03/04 02:45:23;;;;;;;15.65;8.53;;;6.10;99.90;;;;;;1870078;74;21176;-75
2021/03/04 02:47:50;;;;;;;15.18;8.03;;;6.10;99.90;;;;;;1868344;74;21490;-75
2021/03/04 02:50:16;;;;;;;19.62;8.80;;;6.10;99.90;;;;;;1871469;74;21466;-76
2021/03/04 02:52:42;;;;;;;19.42;8.93;;;6.10;99.90;;;;;;1879443;75;21451;-75
2021/03/04 02:55:08;;;;;;;24.02;8.80;;;6.10;99.90;;;;;;1875460;74;21502;-75
2021/03/04 02:57:34;;;;;;;11.97;7.58;;;6.10;99.90;;;;;;1864233;74;21497;-76
2021/03/04 03:00:00;;;;;;;16.32;8.23;;;6.00;99.90;;;;;;1874555;74;21082;-76
2021/03/04 03:02:26;;;;;;;19.12;8.20;;;6.00;99.90;;;;;;1866122;75;21086;-76
2021/03/04 03:04:52;;;;;;;14.93;8.05;;;6.00;99.90;;;;;;1879271;74;21047;-76
2021/03/04 03:07:18;;;;;;;15.13;8.08;;;6.20;99.90;;;;;;1877988;74;21199;-75
2021/03/04 03:09:45;;;;;;;14.93;8.03;;;6.30;99.90;;;;;;1868501;74;21160;-75
2021/03/04 03:12:11;;;;;;;13.95;6.75;;;6.20;99.90;;;;;;1877055;75;21090;-75
2021/03/04 03:14:37;;;;;;;17.77;8.90;;;6.20;99.90;;;;;;1883552;74;21078;-75
2021/03/04 03:17:03;;;;;;;14.58;7.62;;;6.20;99.90;;;;;;1871736;74;21252;-75
2021/03/04 03:19:31;;;;;;;13.40;7.25;;;6.20;99.90;;;;;;1880919;74;21159;-75
2021/03/04 03:21:57;;;;;;;11.85;7.55;;;6.10;99.90;;;;;;1877856;74;21143;-76
2021/03/04 03:24:23;;;;;;;11.57;7.08;;;6.10;99.90;;;;;;1880150;74;21083;-76
2021/03/04 03:26:49;;;;;;;12.53;6.92;;;6.00;99.90;;;;;;1876157;74;21140;-76
2021/03/04 03:29:15;;;;;;;13.60;6.65;;;6.10;99.90;;;;;;1869076;75;21057;-75
2021/03/04 03:31:42;;;;;;;16.25;8.20;;;6.10;99.90;;;;;;1868981;75;21086;-75
2021/03/04 03:34:08;;;;;;;19.07;8.28;;;6.10;99.90;;;;;;1875796;74;21078;-76
2021/03/04 03:36:35;;;;;;;27.00;8.70;;;6.20;99.90;;;;;;1879722;75;21081;-76
2021/03/04 03:39:01;;;;;;;16.75;8.10;;;6.00;99.90;;;;;;1870975;75;21090;-75
2021/03/04 03:41:27;;;;;;;18.65;9.10;;;6.10;99.90;;;;;;1878044;75;21070;-75
2021/03/04 03:43:55;;;;;;;20.23;9.73;;;6.20;99.90;;;;;;1873723;74;21085;-75
2021/03/04 03:46:21;;;;;;;14.03;8.68;;;6.10;99.90;;;;;;1870941;74;21143;-75
2021/03/04 03:48:47;;;;;;;15.72;8.40;;;6.10;99.90;;;;;;1879275;75;21056;-75
2021/03/04 03:51:13;;;;;;;21.20;7.97;;;6.00;99.90;;;;;;1875067;74;21070;-75
2021/03/04 03:53:39;;;;;;;14.95;9.00;;;6.00;99.90;;;;;;1873741;74;21121;-75
2021/03/04 03:56:05;;;;;;;18.57;8.30;;;5.90;99.90;;;;;;1883080;74;21082;-75
2021/03/04 03:58:32;;;;;;;17.85;9.38;;;6.00;99.90;;;;;;1874464;74;21113;-75
2021/03/04 04:00:58;;;;;;;18.60;8.88;;;6.00;99.90;;;;;;1874989;75;21074;-75
2021/03/04 04:03:24;;;;;;;26.45;9.45;;;6.00;99.90;;;;;;1865156;75;21085;-75
2021/03/04 04:05:50;;;;;;;16.65;7.15;;;6.00;99.90;;;;;;1872265;76;21160;-74
2021/03/04 04:08:16;;;;;;;13.38;6.80;;;5.90;99.90;;;;;;1868393;75;21208;-74
2021/03/04 04:10:42;;;;;;;9.55;6.00;;;5.90;99.90;;;;;;1877010;75;21458;-74
2021/03/04 04:13:08;;;;;;;15.20;5.72;;;5.90;99.90;;;;;;1863223;75;21507;-74
2021/03/04 04:15:34;;;;;;;10.60;5.37;;;5.80;99.90;;;;;;1875448;74;21500;-75
2021/03/04 04:18:00;;;;;;;11.48;4.92;;;5.80;99.90;;;;;;1865000;76;21505;-74
2021/03/04 04:20:27;;;;;;;9.45;6.30;;;5.70;99.90;;;;;;1866819;76;21091;-74
2021/03/04 04:22:53;;;;;;;12.03;6.33;;;5.70;99.90;;;;;;1876804;74;21154;-75
2021/03/04 04:25:20;;;;;;;24.37;6.87;;;5.60;99.90;;;;;;1884199;74;21122;-74
2021/03/04 04:27:46;;;;;;;16.67;7.80;;;5.60;99.90;;;;;;1860356;75;21159;-74
2021/03/04 04:30:12;;;;;;;18.80;7.20;;;5.70;99.90;;;;;;1872997;73;21153;-75
2021/03/04 04:32:38;;;;;;;11.03;6.85;;;5.60;99.90;;;;;;1877943;74;21544;-74
2021/03/04 04:35:04;;;;;;;16.42;7.83;;;5.70;99.90;;;;;;1863336;75;21524;-74
2021/03/04 04:37:30;;;;;;;16.60;8.15;;;5.70;99.90;;;;;;1870725;75;21624;-74
2021/03/04 04:39:57;;;;;;;14.35;6.22;;;5.60;99.90;;;;;;1875753;74;21481;-74
2021/03/04 04:42:23;;;;;;;13.65;6.03;;;5.60;99.90;;;;;;1880818;74;21144;-74
2021/03/04 04:44:49;;;;;;;14.50;5.05;;;5.50;99.90;;;;;;1871312;74;21136;-74
2021/03/04 04:47:15;;;;;;;9.75;5.53;;;5.50;99.90;;;;;;1877895;74;21055;-74
2021/03/04 04:49:41;;;;;;;12.58;6.25;;;5.50;99.90;;;;;;1878697;74;21214;-74
2021/03/04 04:52:07;;;;;;;18.55;6.45;;;5.40;99.90;;;;;;1875592;75;21089;-75
2021/03/04 04:54:33;;;;;;;17.35;7.30;;;5.40;99.90;;;;;;1873688;74;21136;-74
2021/03/04 04:56:59;;;;;;;9.00;6.10;;;5.40;99.90;;;;;;1869690;75;21098;-74
2021/03/04 04:59:26;;;;;;;10.53;5.85;;;5.30;99.90;;;;;;1878716;74;21086;-74
2021/03/04 05:01:52;;;;;;;14.78;6.22;;;5.40;99.90;;;;;;1873825;76;21040;-75
2021/03/04 05:04:18;;;;;;;16.50;6.08;;;5.30;99.90;;;;;;1864808;76;21529;-74
2021/03/04 05:06:44;;;;;;;11.65;5.40;;;5.30;99.90;;;;;;1870304;74;21559;-74
2021/03/04 05:09:10;;;;;;;10.18;5.33;;;5.10;99.90;;;;;;1867894;74;21487;-74
2021/03/04 05:11:36;;;;;;;15.03;5.60;;;5.10;99.90;;;;;;1874274;75;21167;-75
2021/03/04 05:14:02;;;;;;;11.93;6.22;;;5.10;99.90;;;;;;1872091;74;21051;-74
2021/03/04 05:16:28;;;;;;;11.22;6.03;;;5.10;99.90;;;;;;1876565;74;21135;-74
2021/03/04 05:18:55;;;;;;;9.88;6.03;;;4.90;99.90;;;;;;1873568;74;21149;-74
2021/03/04 05:21:21;;;;;;;6.45;4.35;;;5.00;99.90;;;;;;1859960;74;21078;-75
2021/03/04 05:23:47;;;;;;;12.33;6.08;;;5.00;99.90;;;;;;1871362;74;21086;-75
2021/03/04 05:26:13;;;;;;;8.78;5.03;;;4.80;99.90;;;;;;1873984;75;21075;-74
2021/03/04 05:28:39;;;;;;;9.80;5.42;;;4.80;99.90;;;;;;1867772;75;21055;-76
2021/03/04 05:31:05;;;;;;;7.80;5.62;;;4.90;99.90;;;;;;1871537;74;21151;-74
2021/03/04 05:33:31;;;;;;;9.13;5.67;;;4.90;99.90;;;;;;1882340;75;21085;-75
2021/03/04 05:35:57;;;;;;;16.27;6.03;;;4.90;99.90;;;;;;1875256;75;21074;-75
2021/03/04 05:38:24;;;;;;;9.20;5.70;;;4.80;99.90;;;;;;1870377;74;21101;-74
2021/03/04 05:40:50;;;;;;;9.93;5.30;;;4.90;99.90;;;;;;1877385;74;21191;-75
2021/03/04 05:43:16;;;;;;;10.25;5.87;;;4.90;99.90;;;;;;1870672;74;21499;-74
2021/03/04 05:45:42;;;;;;;9.08;5.70;;;4.90;99.90;;;;;;1878255;74;21474;-74
2021/03/04 05:48:08;;;;;;;20.52;6.20;;;4.80;99.90;;;;;;1870423;75;21611;-74
2021/03/04 05:50:34;;;;;;;14.38;5.80;;;4.80;99.90;;;;;;1863907;74;21078;-74
2021/03/04 05:53:00;;;;;;;14.85;7.92;;;4.80;99.90;;;;;;1878358;74;21094;-74
2021/03/04 05:55:26;;;;;;;10.65;6.62;;;4.80;99.90;;;;;;1876260;74;21074;-74
2021/03/04 05:57:53;;;;;;;13.50;7.58;;;4.80;99.90;;;;;;1868562;74;21203;-74
2021/03/04 06:00:19;;;;;;;14.03;7.60;;;4.80;99.90;;;;;;1873719;74;21194;-74
2021/03/04 06:02:45;;;;;;;12.28;6.80;;;4.90;99.90;;;;;;1877523;75;21091;-74
2021/03/04 06:05:12;;;;;;;9.58;6.05;;;4.80;99.90;;;;;;1868631;74;21043;-75
2021/03/04 06:07:38;;;;;;;13.90;6.30;;;4.80;99.90;;;;;;1876049;74;21129;-74
2021/03/04 06:10:04;;;;;;;15.15;5.60;;;4.90;99.90;;;;;;1863326;74;21093;-75
2021/03/04 06:12:31;;;;;;;15.30;6.50;;;4.90;99.90;;;;;;1876205;74;21082;-74
2021/03/04 06:14:57;;;;;;;9.90;5.08;;;4.80;99.90;;;;;;1876371;74;21591;-74
2021/03/04 06:17:23;;;;;;;10.98;5.80;;;4.80;99.90;;;;;;1863927;74;21592;-74
2021/03/04 06:19:49;;;;;;;10.72;5.30;;;4.70;99.90;;;;;;1876552;75;21455;-75
2021/03/04 06:22:15;;;;;;;13.20;5.85;;;4.80;99.90;;;;;;1876260;75;21081;-75
2021/03/04 06:24:41;;;;;;;9.55;5.72;;;4.80;99.90;;;;;;1881408;74;21078;-73
2021/03/04 06:27:07;;;;;;;11.00;6.10;;;4.80;99.90;;;;;;1859370;74;21078;-76
2021/03/04 06:29:33;;;;;;;10.90;5.30;;;4.90;99.90;;;;;;1876360;74;21073;-76
2021/03/04 06:32:00;;;;;;;9.80;5.65;;;4.90;99.90;;;;;;1877462;74;21184;-75
2021/03/04 06:34:26;;;;;;;19.12;6.08;;;5.00;99.90;;;;;;1864266;74;21094;-75
2021/03/04 06:36:52;;;;;;;8.55;5.28;;;5.00;99.90;;;;;;1878185;74;21080;-75
2021/03/04 06:39:18;;;;;;;14.15;6.72;;;5.00;99.90;;;;;;1869925;74;21510;-76
2021/03/04 06:41:44;;;;;;;9.43;5.37;;;5.10;99.90;;;;;;1879739;74;21497;-77
2021/03/04 06:44:11;;;;;;;13.55;5.62;;;5.10;99.90;;;;;;1873580;74;21094;-73
2021/03/04 06:46:37;;;;;;;9.75;6.37;;;5.10;99.90;;;;;;1874651;74;21168;-75
2021/03/04 06:49:03;;;;;;;21.97;6.75;;;5.10;99.90;;;;;;1871242;75;21086;-76
2021/03/04 06:51:32;;;;;;;15.18;6.90;;;5.10;99.90;;;;;;1877860;75;21078;-76
2021/03/04 06:53:57;;;;;;;9.40;6.47;;;5.10;99.90;;;;;;1876481;74;21167;-78
2021/03/04 06:56:23;;;;;;;11.88;6.42;;;5.20;99.90;;;;;;1873506;74;21047;-76
2021/03/04 06:58:49;;;;;;;19.40;7.03;;;5.30;99.90;;;;;;1876446;74;21062;-76
2021/03/04 07:01:15;;;;;;;9.28;5.92;;;5.40;99.90;;;;;;1868799;74;21073;-77
2021/03/04 07:03:41;;;;;;;13.05;6.80;;;5.40;99.90;;;;;;1872338;75;21070;-77
2021/03/04 07:06:07;;;;;;;10.90;5.90;;;5.50;99.90;;;;;;1873444;74;21152;-75
2021/03/04 07:08:33;;;;;;;19.77;7.25;;;5.60;99.90;;;;;;1880128;74;21064;-75
2021/03/04 07:11:00;;;;;;;14.60;6.95;;;5.70;99.90;;;;;;1882695;74;21075;-76
2021/03/04 07:13:26;;;;;;;18.02;7.97;;;5.70;99.90;;;;;;1858832;75;21136;-76
2021/03/04 07:15:52;;;;;;;12.23;7.45;;;5.80;99.90;;;;;;1876830;74;21246;-77
2021/03/04 07:18:18;;;;;;;15.95;7.17;;;5.90;99.90;;;;;;1868630;74;21086;-77
2021/03/04 07:20:44;;;;;;;15.18;7.97;;;5.90;99.90;;;;;;1863009;75;21459;-76
2021/03/04 07:23:10;;;;;;;20.25;7.50;;;6.00;99.90;;;;;;1864444;74;21082;-76
2021/03/04 07:25:36;;;;;;;15.48;7.67;;;6.00;99.90;;;;;;1872962;74;21518;-75
2021/03/04 07:28:02;;;;;;;18.82;8.13;;;6.10;99.90;;;;;;1873175;75;21579;-76
2021/03/04 07:30:30;;;;;;;25.77;8.35;;;6.10;99.90;;;;;;1873112;74;21070;-75
2021/03/04 07:32:56;;;;;;;14.18;7.65;;;6.10;99.90;;;;;;1870283;74;21063;-77
2021/03/04 07:35:22;;;;;;;18.02;8.80;;;6.20;99.90;;;;;;1872252;74;21089;-76
2021/03/04 07:37:49;;;;;;;16.87;8.18;;;6.20;99.90;;;;;;1873370;75;21527;-76
2021/03/04 07:40:15;;;;;;;15.80;7.95;;;6.30;99.90;;;;;;1865104;74;21544;-75
2021/03/04 07:42:41;;;;;;;15.95;7.85;;;6.40;99.90;;;;;;1877395;74;21462;-76
2021/03/04 07:45:07;;;;;;;23.47;8.33;;;6.60;99.90;;;;;;1874658;75;21086;-76
2021/03/04 07:47:33;;;;;;;16.40;8.75;;;6.60;99.90;;;;;;1874408;74;21152;-75
2021/03/04 07:49:59;;;;;;;21.93;8.08;;;6.70;99.90;;;;;;1878041;75;21147;-75
2021/03/04 07:52:25;;;;;;;23.27;7.92;;;6.80;99.90;;;;;;1864512;76;21087;-75
2021/03/04 07:54:52;;;;;;;18.40;8.30;;;7.10;99.90;;;;;;1858964;76;21148;-75
2021/03/04 07:57:18;;;;;;;20.12;8.58;;;7.20;99.90;;;;;;1875577;74;21105;-75
2021/03/04 07:59:44;;;;;;;20.23;9.50;;;7.40;99.90;;;;;;1865176;74;21078;-75
2021/03/04 08:02:10;;;;;;;20.50;8.38;;;7.50;99.90;;;;;;1859185;75;21235;-75
2021/03/04 08:04:36;;;;;;;32.95;9.58;;;7.60;99.90;;;;;;1876117;74;21203;-75
2021/03/04 08:07:03;;;;;;;17.92;8.40;;;7.80;99.90;;;;;;1876845;74;21138;-76
2021/03/04 08:09:29;;;;;;;25.30;8.98;;;7.90;99.90;;;;;;1871442;74;21055;-74
2021/03/04 08:11:56;;;;;;;23.30;9.03;;;8.10;99.90;;;;;;1868734;74;21446;-76
2021/03/04 08:14:22;;;;;;;22.85;8.48;;;8.10;99.90;;;;;;1871300;74;21082;-76
2021/03/04 08:16:48;;;;;;;36.17;9.25;;;8.20;99.90;;;;;;1874081;75;21564;-74
2021/03/04 08:19:14;;;;;;;22.55;9.18;;;8.50;99.90;;;;;;1862730;75;21483;-76
2021/03/04 08:21:41;;;;;;;19.80;8.53;;;8.60;99.90;;;;;;1879579;74;21152;-76
2021/03/04 08:24:07;;;;;;;17.25;8.88;;;8.70;99.90;;;;;;1883896;74;21097;-76
2021/03/04 08:26:36;;;;;;;19.48;8.25;;;8.80;99.90;;;;;;1874414;74;21466;-76
2021/03/04 08:29:01;;;;;;;18.77;7.85;;;9.20;99.90;;;;;;1874462;74;21095;-76
2021/03/04 08:31:27;;;;;;;22.13;9.40;;;9.50;99.90;;;;;;1874299;75;21047;-77
2021/03/04 08:33:53;;;;;;;19.25;9.25;;;9.50;99.90;;;;;;1874205;74;21565;-77
2021/03/04 08:36:19;;;;;;;18.80;8.40;;;9.60;99.90;;;;;;1875442;74;21103;-75
2021/03/04 08:38:45;;;;;;;19.75;7.15;;;9.60;99.90;;;;;;1870257;74;21082;-76
2021/03/04 08:41:11;;;;;;;23.18;8.18;;;9.70;99.90;;;;;;1879343;74;21047;-76
2021/03/04 08:43:39;;;;;;;14.83;7.28;;;10.10;99.90;;;;;;1875369;74;21071;-76
2021/03/04 08:46:06;;;;;;;14.65;7.42;;;10.40;99.90;;;;;;1866798;75;21074;-76
2021/03/04 08:48:33;;;;;;;17.27;7.58;;;10.70;99.90;;;;;;1880974;74;21090;-75
2021/03/04 08:51:02;;;;;;;12.65;6.15;;;10.70;99.90;;;;;;1873381;74;21188;-76
2021/03/04 08:53:26;;;;;;;13.65;6.47;;;11.10;99.90;;;;;;1868808;74;21062;-76
2021/03/04 08:55:53;;;;;;;21.07;6.30;;;11.40;99.90;;;;;;1875749;73;21069;-76
2021/03/04 08:58:19;;;;;;;27.20;5.70;;;11.70;99.90;;;;;;1873113;75;21136;-76
2021/03/04 09:00:45;;;;;;;20.77;6.08;;;11.80;99.90;;;;;;1865211;74;21113;-76
2021/03/04 09:03:11;;;;;;;16.37;5.47;;;12.20;99.90;;;;;;1881208;75;21059;-76
2021/03/04 09:05:38;;;;;;;14.55;5.85;;;12.60;99.90;;;;;;1868923;75;21164;-76
2021/03/04 09:08:04;;;;;;;12.85;5.42;;;12.90;99.90;;;;;;1861863;74;21090;-76
2021/03/04 09:10:30;;;;;;;17.73;6.03;;;13.20;99.90;;;;;;1869724;74;21109;-76
2021/03/04 09:12:56;;;;;;;20.57;5.62;;;13.30;99.90;;;;;;1874964;75;21097;-76
2021/03/04 09:15:22;;;;;;;13.13;5.20;;;13.30;99.90;;;;;;1871891;74;21090;-76
2021/03/04 09:17:48;;;;;;;17.85;5.25;;;13.40;99.90;;;;;;1879737;74;21104;-77
2021/03/04 09:20:14;;;;;;;20.57;6.33;;;13.80;99.90;;;;;;1878922;75;21494;-76
2021/03/04 09:22:41;;;;;;;12.68;5.28;;;13.90;99.90;;;;;;1882375;73;21515;-75
2021/03/04 09:25:07;;;;;;;10.98;5.25;;;14.30;99.90;;;;;;1873371;75;21139;-75
2021/03/04 09:27:33;;;;;;;14.45;5.67;;;14.30;99.90;;;;;;1877859;73;21161;-76
2021/03/04 09:29:59;;;;;;;11.60;4.87;;;14.70;99.90;;;;;;1878982;75;21082;-75
2021/03/04 09:32:25;;;;;;;14.28;5.10;;;15.00;99.90;;;;;;1875483;74;21086;-75
2021/03/04 09:34:52;;;;;;;10.78;4.62;;;14.40;99.90;;;;;;1875575;74;21217;-77
2021/03/04 09:37:18;;;;;;;11.70;4.87;;;14.50;99.90;;;;;;1877315;74;21532;-76
2021/03/04 09:39:44;;;;;;;11.60;4.60;;;14.60;99.90;;;;;;1869231;74;21567;-76
2021/03/04 09:42:10;;;;;;;10.28;4.67;;;14.90;99.90;;;;;;1876592;74;21207;-76
2021/03/04 09:44:36;;;;;;;8.93;4.25;;;15.30;99.90;;;;;;1872785;74;21070;-77
2021/03/04 09:47:03;;;;;;;14.28;3.47;;;15.50;99.90;;;;;;1874490;75;21090;-77
2021/03/04 09:49:29;;;;;;;13.62;4.45;;;15.80;99.90;;;;;;1877494;74;21212;-76
2021/03/04 09:51:57;;;;;;;9.55;4.17;;;16.30;99.90;;;;;;1868253;74;21081;-76
2021/03/04 09:54:23;;;;;;;13.38;3.87;;;15.90;99.90;;;;;;1858077;75;21085;-76
2021/03/04 09:56:49;;;;;;;9.23;2.83;;;15.40;99.20;;;;;;1872748;74;21197;-74
2021/03/04 09:59:15;;;;;;;11.33;3.35;;;14.80;98.90;;;;;;1875894;74;21074;-75
2021/03/04 10:01:41;;;;;;;10.38;3.45;;;14.70;99.50;;;;;;1877810;74;21074;-76
2021/03/04 10:04:07;;;;;;;10.18;3.22;;;15.00;98.50;;;;;;1872302;74;21157;-77
2021/03/04 10:06:33;;;;;;;6.45;3.02;;;15.30;98.10;;;;;;1870695;74;21241;-73
2021/03/04 10:09:00;;;;;;;9.15;2.62;;;15.70;97.00;;;;;;1877398;75;21548;-75
2021/03/04 10:11:26;;;;;;;13.30;3.00;;;16.10;96.30;;;;;;1865868;75;21497;-74
2021/03/04 10:13:52;;;;;;;10.80;3.12;;;16.60;95.00;;;;;;1876148;74;21078;-74
2021/03/04 10:16:18;;;;;;;4.87;2.77;;;16.90;94.00;;;;;;1873080;74;21159;-76
2021/03/04 10:18:44;;;;;;;24.55;3.22;;;17.20;93.10;;;;;;1869241;74;21039;-75
2021/03/04 10:21:10;;;;;;;8.68;2.65;;;17.30;91.50;;;;;;1875479;75;21098;-75
2021/03/04 10:23:36;;;;;;;8.60;2.75;;;17.10;91.50;;;;;;1875409;74;21082;-75
2021/03/04 10:26:03;;;;;;;9.28;3.05;;;17.20;91.50;;;;;;1874667;74;21521;-75
2021/03/04 10:28:29;;;;;;;12.33;2.87;;;17.40;90.70;;;;;;1874936;74;21493;-74
2021/03/04 10:30:55;;;;;;;7.40;2.80;;;17.10;90.80;;;;;;1874975;74;21086;-74
2021/03/04 10:33:21;;;;;;;9.98;3.45;;;17.10;91.00;;;;;;1872913;74;21046;-76
2021/03/04 10:35:48;;;;;;;14.70;2.95;;;17.40;90.30;;;;;;1871106;74;21139;-75
2021/03/04 10:38:14;;;;;;;6.37;2.50;;;17.50;89.20;;;;;;1873117;74;21074;-77
2021/03/04 10:40:40;;;;;;;14.15;3.22;;;17.50;89.40;;;;;;1875333;74;21498;-76
2021/03/04 10:43:06;;;;;;;11.35;2.92;;;17.90;88.50;;;;;;1875640;74;21047;-77
2021/03/04 10:45:32;;;;;;;5.25;2.62;;;18.00;87.40;;;;;;1872762;75;21069;-77
2021/03/04 10:47:58;;;;;;;16.00;4.08;;;18.20;86.00;;;;;;1881599;74;21078;-76
2021/03/04 10:50:24;;;;;;;10.75;3.37;;;18.10;86.30;;;;;;1873114;74;21208;-77
2021/03/04 10:52:51;;;;;;;8.60;3.20;;;18.60;83.70;;;;;;1875676;74;21435;-76
2021/03/04 10:55:17;;;;;;;7.47;2.95;;;18.50;83.20;;;;;;1854416;74;21073;-76
2021/03/04 10:57:46;;;;;;;8.68;2.75;;;18.40;82.00;;;;;;1873898;74;21144;-77
2021/03/04 11:00:12;;;;;;;8.48;3.08;;;18.50;81.80;;;;;;1924668;73;21088;-76
2021/03/04 11:02:38;;;;;;;20.52;3.33;;;18.10;81.90;;;;;;1935015;74;21088;-78
2021/03/04 11:05:06;;;;;;;13.08;2.98;;;18.20;83.90;;;;;;1934989;74;21045;-77
2021/03/04 11:07:34;;;;;;;9.55;2.95;;;18.20;81.40;;;;;;1918528;74;21187;-78
2021/03/04 11:10:00;;;;;;;4.70;2.20;;;18.60;80.40;;;;;;1909923;74;21075;-78
2021/03/04 11:12:26;;;;;;;13.32;3.20;;;19.10;79.20;;;;;;1935489;73;21228;-79
2021/03/04 11:14:52;;;;;;;8.78;2.87;;;19.30;79.40;;;;;;1937719;73;21161;-78
2021/03/04 11:17:18;;;;;;;9.65;2.58;;;19.60;77.00;;;;;;1945174;72;21071;-77
2021/03/04 11:19:44;;;;;;;4.83;2.67;;;19.40;76.40;;;;;;1943551;72;21035;-77
2021/03/04 11:22:10;;;;;;;12.90;2.87;;;18.60;77.90;;;;;;1942673;72;21079;-76
2021/03/04 11:24:36;;;;;;;8.38;2.65;;;19.00;77.80;;;;;;1944995;72;21066;-80
2021/03/04 11:27:03;;;;;;;15.08;3.83;;;19.20;76.30;;;;;;1943325;74;21075;-78
2021/03/04 11:29:29;;;;;;;6.90;2.98;;;19.50;75.30;;;;;;1938229;72;21218;-77
2021/03/04 11:31:55;;;;;;;7.22;2.25;;;19.60;74.40;;;;;;1944391;72;21075;-79
2021/03/04 11:34:21;;;;;;;9.73;2.70;;;19.10;76.00;;;;;;1945814;73;21129;-77
2021/03/04 11:36:47;;;;;;;10.08;2.83;;;19.10;75.20;;;;;;1943824;74;21515;-77
2021/03/04 11:39:13;;;;;;;13.58;3.02;;;19.80;73.80;;;;;;1945443;73;21428;-77
2021/03/04 11:41:39;;;;;;;17.42;3.42;;;19.70;74.50;;;;;;1944432;72;21463;-78
2021/03/04 11:44:06;;;;;;;7.70;3.02;;;20.70;72.20;;;;;;1945006;72;21475;-77
2021/03/04 11:46:32;;;;;;;16.10;3.90;;;20.70;71.20;;;;;;1936645;74;21156;-78
2021/03/04 11:48:59;;;;;;;6.70;2.80;;;20.70;69.70;;;;;;1944859;73;21070;-77
2021/03/04 11:51:25;;;;;;;10.08;3.25;;;20.50;69.90;;;;;;1944944;73;21148;-75
2021/03/04 11:53:51;;;;;;;13.45;3.58;;;20.70;71.40;;;;;;1940853;74;21082;-75
2021/03/04 11:56:19;;;;;;;23.42;3.62;;;20.60;70.60;;;;;;1937096;74;21122;-76
2021/03/04 11:58:45;;;;;;;12.45;3.90;;;19.80;70.80;;;;;;1942977;72;21096;-75
2021/03/04 12:01:11;;;;;;;20.82;3.27;;;19.00;73.00;;;;;;1942919;72;21208;-74
2021/03/04 12:03:37;;;;;;;15.98;3.00;;;18.90;73.90;;;;;;1942938;72;21178;-74
2021/03/04 12:06:03;;;;;;;13.98;4.20;;;18.90;74.00;;;;;;1935621;72;21156;-75
2021/03/04 12:08:29;;;;;;;12.15;3.77;;;19.40;76.60;;;;;;1944917;72;21152;-74
2021/03/04 12:10:56;;;;;;;9.65;3.98;;;19.70;74.50;;;;;;1941680;72;21196;-74
2021/03/04 12:13:23;;;;;;;13.08;4.20;;;19.60;73.30;;;;;;1937015;74;21638;-74
2021/03/04 12:15:49;;;;;;;9.75;3.65;;;18.80;76.50;;;;;;1937590;73;21156;-75
2021/03/04 12:18:15;;;;;;;8.23;3.77;;;18.50;78.20;;;;;;1938051;72;21161;-75
2021/03/04 12:20:41;;;;;;;10.88;2.85;;;18.20;79.90;;;;;;1935577;73;21040;-74
2021/03/04 12:23:07;;;;;;;5.55;2.92;;;18.10;79.70;;;;;;1941083;74;21207;-74
2021/03/04 12:25:34;;;;;;;10.98;3.75;;;17.90;79.60;;;;;;1939550;72;21612;-75
2021/03/04 12:28:00;;;;;;;19.30;2.90;;;17.90;77.40;;;;;;1947806;73;21078;-76
2021/03/04 12:30:27;;;;;;;24.25;3.10;;;17.60;79.60;;;;;;1941742;73;21047;-77
2021/03/04 12:32:53;;;;;;;12.10;3.02;;;17.70;79.70;;;;;;1944652;72;21087;-78
2021/03/04 12:35:19;;;;;;;17.57;3.37;;;18.30;77.00;;;;;;1947255;72;21145;-77
2021/03/04 12:37:45;;;;;;;10.08;3.62;;;18.30;77.00;;;;;;1946677;73;21244;-78
2021/03/04 12:40:11;;;;;;;17.00;3.37;;;18.60;76.50;;;;;;1944632;72;21117;-79
2021/03/04 12:42:37;;;;;;;21.68;3.87;;;18.70;76.90;;;;;;1948345;73;21076;-81